sensor_id;sensor_type;location;lat;lon;timestamp;P1;durP1;ratioP1;P2;durP2;ratioP2
11334;SDS011;5722;42.620;23.374;2023-05-19T00:02:05;6.50;;;4.97;;
11334;SDS011;5722;42.620;23.374;2023-05-19T00:04:33;6.50;;;5.33;;
11334;SDS011;5722;42.620;23.374;2023-05-19T00:07:02;6.07;;;5.47;;
11334;SDS011;5722;42.620;23.374;2023-05-19T00:09:33;8.97;;;5.70;;
11334;SDS011;5722;42.620;23.374;2023-05-19T00:12:16;8.53;;;5.50;;
11334;SDS011;5722;42.620;23.374;2023-05-19T00:14:46;6.23;;;5.47;;
11334;SDS011;5722;42.620;23.374;2023-05-19T00:17:13;7.83;;;5.23;;
11334;SDS011;5722;42.620;23.374;2023-05-19T00:19:43;7.03;;;5.63;;
11334;SDS011;5722;42.620;23.374;2023-05-19T00:22:14;6.13;;;5.43;;
11334;SDS011;5722;42.620;23.374;2023-05-19T00:24:41;8.37;;;5.73;;
11334;SDS011;5722;42.620;23.374;2023-05-19T00:27:08;7.27;;;5.30;;
11334;SDS011;5722;42.620;23.374;2023-05-19T00:29:43;6.40;;;5.80;;
11334;SDS011;5722;42.620;23.374;2023-05-19T00:32:09;6.03;;;4.90;;
11334;SDS011;5722;42.620;23.374;2023-05-19T00:34:38;5.90;;;5.10;;
11334;SDS011;5722;42.620;23.374;2023-05-19T00:37:09;8.03;;;5.60;;
11334;SDS011;5722;42.620;23.374;2023-05-19T00:39:42;5.87;;;5.27;;
11334;SDS011;5722;42.620;23.374;2023-05-19T00:42:16;7.23;;;5.40;;
11334;SDS011;5722;42.620;23.374;2023-05-19T00:44:43;7.57;;;5.90;;
11334;SDS011;5722;42.620;23.374;2023-05-19T00:47:12;6.37;;;5.70;;
11334;SDS011;5722;42.620;23.374;2023-05-19T00:49:46;5.83;;;5.30;;
11334;SDS011;5722;42.620;23.374;2023-05-19T00:52:14;6.07;;;5.47;;
11334;SDS011;5722;42.620;23.374;2023-05-19T00:54:44;6.67;;;6.00;;
11334;SDS011;5722;42.620;23.374;2023-05-19T00:57:11;6.37;;;5.53;;
11334;SDS011;5722;42.620;23.374;2023-05-19T00:59:45;5.80;;;5.20;;
11334;SDS011;5722;42.620;23.374;2023-05-19T01:02:15;5.80;;;5.10;;
11334;SDS011;5722;42.620;23.374;2023-05-19T01:04:45;6.00;;;5.40;;
11334;SDS011;5722;42.620;23.374;2023-05-19T01:07:15;6.23;;;5.67;;
11334;SDS011;5722;42.620;23.374;2023-05-19T01:09:45;6.87;;;5.87;;
11334;SDS011;5722;42.620;23.374;2023-05-19T01:12:15;5.93;;;5.43;;
11334;SDS011;5722;42.620;23.374;2023-05-19T01:14:44;9.57;;;5.63;;
11334;SDS011;5722;42.620;23.374;2023-05-19T01:17:15;8.27;;;5.77;;
11334;SDS011;5722;42.620;23.374;2023-05-19T01:19:55;6.53;;;5.73;;
11334;SDS011;5722;42.620;23.374;2023-05-19T01:25:31;6.77;;;5.70;;
11334;SDS011;5722;42.620;23.374;2023-05-19T01:33:32;8.50;;;6.33;;
11334;SDS011;5722;42.620;23.374;2023-05-19T01:36:03;7.87;;;5.90;;
11334;SDS011;5722;42.620;23.374;2023-05-19T01:38:34;7.50;;;6.27;;
11334;SDS011;5722;42.620;23.374;2023-05-19T01:41:03;9.13;;;6.30;;
11334;SDS011;5722;42.620;23.374;2023-05-19T01:43:37;7.93;;;6.10;;
11334;SDS011;5722;42.620;23.374;2023-05-19T01:46:18;6.60;;;6.00;;
11334;SDS011;5722;42.620;23.374;2023-05-19T01:48:49;7.33;;;6.63;;
11334;SDS011;5722;42.620;23.374;2023-05-19T01:51:18;7.40;;;6.23;;
11334;SDS011;5722;42.620;23.374;2023-05-19T01:53:49;7.00;;;6.30;;
11334;SDS011;5722;42.620;23.374;2023-05-19T01:56:21;7.37;;;6.67;;
11334;SDS011;5722;42.620;23.374;2023-05-19T01:58:52;7.90;;;6.60;;
11334;SDS011;5722;42.620;23.374;2023-05-19T02:01:27;8.37;;;6.70;;
11334;SDS011;5722;42.620;23.374;2023-05-19T02:04:12;7.20;;;6.20;;
11334;SDS011;5722;42.620;23.374;2023-05-19T02:06:44;8.07;;;6.37;;
11334;SDS011;5722;42.620;23.374;2023-05-19T02:09:14;7.43;;;6.50;;
11334;SDS011;5722;42.620;23.374;2023-05-19T02:11:43;7.60;;;6.80;;
11334;SDS011;5722;42.620;23.374;2023-05-19T02:14:16;9.70;;;6.93;;
11334;SDS011;5722;42.620;23.374;2023-05-19T02:16:46;7.80;;;6.57;;
11334;SDS011;5722;42.620;23.374;2023-05-19T02:19:24;7.27;;;6.47;;
11334;SDS011;5722;42.620;23.374;2023-05-19T02:21:55;8.60;;;6.50;;
11334;SDS011;5722;42.620;23.374;2023-05-19T02:24:26;7.53;;;6.83;;
11334;SDS011;5722;42.620;23.374;2023-05-19T02:27:00;7.50;;;6.70;;
11334;SDS011;5722;42.620;23.374;2023-05-19T02:29:27;8.00;;;6.83;;
11334;SDS011;5722;42.620;23.374;2023-05-19T02:31:59;7.47;;;6.77;;
11334;SDS011;5722;42.620;23.374;2023-05-19T02:34:30;7.87;;;7.07;;
11334;SDS011;5722;42.620;23.374;2023-05-19T02:36:58;8.50;;;7.53;;
11334;SDS011;5722;42.620;23.374;2023-05-19T02:39:25;14.07;;;8.00;;
11334;SDS011;5722;42.620;23.374;2023-05-19T02:41:53;9.43;;;8.20;;
11334;SDS011;5722;42.620;23.374;2023-05-19T02:44:23;9.97;;;7.83;;
11334;SDS011;5722;42.620;23.374;2023-05-19T02:46:53;11.00;;;8.67;;
11334;SDS011;5722;42.620;23.374;2023-05-19T02:49:22;11.87;;;8.53;;
11334;SDS011;5722;42.620;23.374;2023-05-19T02:51:56;9.40;;;8.40;;
11334;SDS011;5722;42.620;23.374;2023-05-19T02:54:25;10.87;;;8.40;;
11334;SDS011;5722;42.620;23.374;2023-05-19T02:56:52;10.70;;;8.57;;
11334;SDS011;5722;42.620;23.374;2023-05-19T02:59:25;10.23;;;9.07;;
11334;SDS011;5722;42.620;23.374;2023-05-19T03:01:58;11.27;;;9.50;;
11334;SDS011;5722;42.620;23.374;2023-05-19T03:04:29;10.17;;;9.17;;
11334;SDS011;5722;42.620;23.374;2023-05-19T03:07:02;10.53;;;8.87;;
11334;SDS011;5722;42.620;23.374;2023-05-19T03:09:30;10.50;;;9.17;;
11334;SDS011;5722;42.620;23.374;2023-05-19T03:12:00;11.53;;;9.77;;
11334;SDS011;5722;42.620;23.374;2023-05-19T03:14:32;11.13;;;9.93;;
11334;SDS011;5722;42.620;23.374;2023-05-19T03:16:59;11.17;;;10.03;;
11334;SDS011;5722;42.620;23.374;2023-05-19T03:19:33;12.20;;;10.00;;
11334;SDS011;5722;42.620;23.374;2023-05-19T03:22:00;12.93;;;9.77;;
11334;SDS011;5722;42.620;23.374;2023-05-19T03:24:31;13.13;;;10.23;;
11334;SDS011;5722;42.620;23.374;2023-05-19T03:26:58;12.50;;;10.83;;
11334;SDS011;5722;42.620;23.374;2023-05-19T03:29:26;12.20;;;10.33;;
11334;SDS011;5722;42.620;23.374;2023-05-19T03:31:56;14.63;;;11.20;;
11334;SDS011;5722;42.620;23.374;2023-05-19T03:34:25;13.23;;;10.50;;
11334;SDS011;5722;42.620;23.374;2023-05-19T03:36:52;13.77;;;11.17;;
11334;SDS011;5722;42.620;23.374;2023-05-19T03:39:20;13.70;;;10.63;;
11334;SDS011;5722;42.620;23.374;2023-05-19T03:41:48;13.60;;;10.87;;
11334;SDS011;5722;42.620;23.374;2023-05-19T03:44:19;12.27;;;11.00;;
11334;SDS011;5722;42.620;23.374;2023-05-19T03:47:00;13.93;;;11.67;;
11334;SDS011;5722;42.620;23.374;2023-05-19T03:49:29;13.80;;;11.73;;
11334;SDS011;5722;42.620;23.374;2023-05-19T03:51:57;12.97;;;11.43;;
11334;SDS011;5722;42.620;23.374;2023-05-19T03:54:28;12.63;;;11.33;;
11334;SDS011;5722;42.620;23.374;2023-05-19T03:57:00;11.60;;;10.40;;
11334;SDS011;5722;42.620;23.374;2023-05-19T03:59:27;12.20;;;10.90;;
11334;SDS011;5722;42.620;23.374;2023-05-19T04:01:55;14.67;;;12.07;;
11334;SDS011;5722;42.620;23.374;2023-05-19T04:04:26;14.77;;;11.53;;
11334;SDS011;5722;42.620;23.374;2023-05-19T04:06:56;14.13;;;11.23;;
11334;SDS011;5722;42.620;23.374;2023-05-19T04:09:27;14.73;;;11.23;;
11334;SDS011;5722;42.620;23.374;2023-05-19T04:11:58;13.70;;;11.40;;
11334;SDS011;5722;42.620;23.374;2023-05-19T04:14:28;13.00;;;11.27;;
11334;SDS011;5722;42.620;23.374;2023-05-19T04:16:56;12.83;;;11.20;;
11334;SDS011;5722;42.620;23.374;2023-05-19T04:19:24;13.97;;;11.20;;
11334;SDS011;5722;42.620;23.374;2023-05-19T04:22:04;14.33;;;11.53;;
11334;SDS011;5722;42.620;23.374;2023-05-19T04:24:44;13.67;;;10.37;;
11334;SDS011;5722;42.620;23.374;2023-05-19T04:27:28;13.03;;;10.90;;
11334;SDS011;5722;42.620;23.374;2023-05-19T04:30:00;13.10;;;11.07;;
11334;SDS011;5722;42.620;23.374;2023-05-19T04:32:30;13.47;;;10.73;;
11334;SDS011;5722;42.620;23.374;2023-05-19T04:35:01;11.97;;;10.77;;
11334;SDS011;5722;42.620;23.374;2023-05-19T04:37:32;13.17;;;10.83;;
11334;SDS011;5722;42.620;23.374;2023-05-19T04:40:02;12.07;;;10.20;;
11334;SDS011;5722;42.620;23.374;2023-05-19T04:42:35;12.00;;;10.73;;
11334;SDS011;5722;42.620;23.374;2023-05-19T04:45:11;13.30;;;9.63;;
11334;SDS011;5722;42.620;23.374;2023-05-19T04:47:38;14.67;;;10.10;;
11334;SDS011;5722;42.620;23.374;2023-05-19T04:50:22;10.70;;;9.60;;
11334;SDS011;5722;42.620;23.374;2023-05-19T04:53:00;11.87;;;9.80;;
11334;SDS011;5722;42.620;23.374;2023-05-19T04:55:42;11.93;;;10.30;;
11334;SDS011;5722;42.620;23.374;2023-05-19T04:58:25;13.20;;;10.00;;
11334;SDS011;5722;42.620;23.374;2023-05-19T05:00:54;12.13;;;10.17;;
11334;SDS011;5722;42.620;23.374;2023-05-19T05:03:29;11.80;;;9.27;;
11334;SDS011;5722;42.620;23.374;2023-05-19T05:06:11;11.17;;;8.93;;
11334;SDS011;5722;42.620;23.374;2023-05-19T05:08:44;11.10;;;9.27;;
11334;SDS011;5722;42.620;23.374;2023-05-19T05:11:15;12.43;;;9.63;;
11334;SDS011;5722;42.620;23.374;2023-05-19T05:13:43;11.13;;;9.43;;
11334;SDS011;5722;42.620;23.374;2023-05-19T05:16:13;10.53;;;9.43;;
11334;SDS011;5722;42.620;23.374;2023-05-19T05:18:42;12.10;;;10.30;;
11334;SDS011;5722;42.620;23.374;2023-05-19T05:21:12;14.13;;;9.47;;
11334;SDS011;5722;42.620;23.374;2023-05-19T05:23:40;11.73;;;9.13;;
11334;SDS011;5722;42.620;23.374;2023-05-19T05:26:14;11.13;;;9.27;;
11334;SDS011;5722;42.620;23.374;2023-05-19T05:28:44;10.63;;;9.17;;
11334;SDS011;5722;42.620;23.374;2023-05-19T05:31:13;9.90;;;8.73;;
11334;SDS011;5722;42.620;23.374;2023-05-19T05:33:56;11.53;;;9.33;;
11334;SDS011;5722;42.620;23.374;2023-05-19T05:36:25;11.67;;;9.60;;
11334;SDS011;5722;42.620;23.374;2023-05-19T05:38:53;14.63;;;9.50;;
11334;SDS011;5722;42.620;23.374;2023-05-19T05:41:33;11.33;;;8.93;;
11334;SDS011;5722;42.620;23.374;2023-05-19T05:44:01;12.77;;;8.87;;
11334;SDS011;5722;42.620;23.374;2023-05-19T05:49:16;10.40;;;8.97;;
11334;SDS011;5722;42.620;23.374;2023-05-19T05:51:47;15.20;;;8.97;;
11334;SDS011;5722;42.620;23.374;2023-05-19T05:54:20;11.20;;;9.30;;
11334;SDS011;5722;42.620;23.374;2023-05-19T05:56:50;11.63;;;9.20;;
11334;SDS011;5722;42.620;23.374;2023-05-19T05:59:23;12.87;;;9.20;;
11334;SDS011;5722;42.620;23.374;2023-05-19T06:01:51;10.50;;;9.40;;
11334;SDS011;5722;42.620;23.374;2023-05-19T06:04:29;11.90;;;10.17;;
11334;SDS011;5722;42.620;23.374;2023-05-19T06:06:56;12.80;;;9.30;;
11334;SDS011;5722;42.620;23.374;2023-05-19T06:09:26;10.50;;;9.10;;
11334;SDS011;5722;42.620;23.374;2023-05-19T06:11:56;9.83;;;8.80;;
11334;SDS011;5722;42.620;23.374;2023-05-19T06:14:26;10.67;;;8.63;;
11334;SDS011;5722;42.620;23.374;2023-05-19T06:16:58;9.17;;;7.83;;
11334;SDS011;5722;42.620;23.374;2023-05-19T06:19:27;12.83;;;9.20;;
11334;SDS011;5722;42.620;23.374;2023-05-19T06:21:58;10.00;;;8.93;;
11334;SDS011;5722;42.620;23.374;2023-05-19T06:24:25;15.10;;;9.38;;
11334;SDS011;5722;42.620;23.374;2023-05-19T06:26:53;12.57;;;9.47;;
11334;SDS011;5722;42.620;23.374;2023-05-19T06:29:22;11.33;;;8.40;;
11334;SDS011;5722;42.620;23.374;2023-05-19T06:31:50;10.73;;;8.15;;
11334;SDS011;5722;42.620;23.374;2023-05-19T06:34:20;10.93;;;7.78;;
11334;SDS011;5722;42.620;23.374;2023-05-19T06:36:48;10.15;;;7.60;;
11334;SDS011;5722;42.620;23.374;2023-05-19T06:44:43;8.90;;;7.30;;
11334;SDS011;5722;42.620;23.374;2023-05-19T06:47:18;14.25;;;7.47;;
11334;SDS011;5722;42.620;23.374;2023-05-19T06:49:58;9.75;;;7.65;;
11334;SDS011;5722;42.620;23.374;2023-05-19T06:52:42;10.48;;;7.60;;
11334;SDS011;5722;42.620;23.374;2023-05-19T06:55:11;9.68;;;7.05;;
11334;SDS011;5722;42.620;23.374;2023-05-19T06:57:44;8.93;;;5.82;;
11334;SDS011;5722;42.620;23.374;2023-05-19T07:02:59;8.05;;;6.53;;
11334;SDS011;5722;42.620;23.374;2023-05-19T07:05:36;11.38;;;6.60;;
11334;SDS011;5722;42.620;23.374;2023-05-19T07:08:04;7.00;;;6.00;;
11334;SDS011;5722;42.620;23.374;2023-05-19T07:10:39;6.95;;;6.18;;
11334;SDS011;5722;42.620;23.374;2023-05-19T07:13:07;7.60;;;6.53;;
11334;SDS011;5722;42.620;23.374;2023-05-19T07:15:43;8.27;;;7.05;;
11334;SDS011;5722;42.620;23.374;2023-05-19T07:20:57;9.95;;;6.68;;
11334;SDS011;5722;42.620;23.374;2023-05-19T07:23:31;11.93;;;6.80;;
11334;SDS011;5722;42.620;23.374;2023-05-19T07:26:05;9.27;;;6.85;;
11334;SDS011;5722;42.620;23.374;2023-05-19T07:28:35;7.80;;;7.00;;
11334;SDS011;5722;42.620;23.374;2023-05-19T07:31:29;8.52;;;6.90;;
11334;SDS011;5722;42.620;23.374;2023-05-19T07:34:04;8.82;;;7.30;;
11334;SDS011;5722;42.620;23.374;2023-05-19T07:36:34;8.10;;;7.22;;
11334;SDS011;5722;42.620;23.374;2023-05-19T07:39:05;7.20;;;6.50;;
11334;SDS011;5722;42.620;23.374;2023-05-19T07:41:42;11.23;;;7.30;;
11334;SDS011;5722;42.620;23.374;2023-05-19T07:44:11;7.63;;;6.60;;
11334;SDS011;5722;42.620;23.374;2023-05-19T07:46:45;12.32;;;7.25;;
11334;SDS011;5722;42.620;23.374;2023-05-19T07:49:20;8.55;;;7.63;;
11334;SDS011;5722;42.620;23.374;2023-05-19T07:51:54;10.23;;;7.20;;
11334;SDS011;5722;42.620;23.374;2023-05-19T07:54:30;8.70;;;7.63;;
11334;SDS011;5722;42.620;23.374;2023-05-19T07:56:59;10.90;;;7.60;;
11334;SDS011;5722;42.620;23.374;2023-05-19T07:59:32;10.15;;;7.55;;
11334;SDS011;5722;42.620;23.374;2023-05-19T08:02:05;12.23;;;8.18;;
11334;SDS011;5722;42.620;23.374;2023-05-19T08:04:39;14.02;;;7.60;;
11334;SDS011;5722;42.620;23.374;2023-05-19T08:07:10;10.05;;;7.88;;
11334;SDS011;5722;42.620;23.374;2023-05-19T08:09:39;14.30;;;7.93;;
11334;SDS011;5722;42.620;23.374;2023-05-19T08:12:09;10.00;;;7.97;;
11334;SDS011;5722;42.620;23.374;2023-05-19T08:14:41;11.57;;;7.82;;
11334;SDS011;5722;42.620;23.374;2023-05-19T08:17:18;10.07;;;7.90;;
11334;SDS011;5722;42.620;23.374;2023-05-19T08:19:47;12.40;;;8.27;;
11334;SDS011;5722;42.620;23.374;2023-05-19T08:22:23;9.15;;;8.10;;
11334;SDS011;5722;42.620;23.374;2023-05-19T08:25:01;8.85;;;7.95;;
11334;SDS011;5722;42.620;23.374;2023-05-19T08:27:34;12.95;;;7.88;;
11334;SDS011;5722;42.620;23.374;2023-05-19T08:30:07;11.13;;;8.18;;
11334;SDS011;5722;42.620;23.374;2023-05-19T08:35:17;13.38;;;7.85;;
11334;SDS011;5722;42.620;23.374;2023-05-19T08:37:46;14.70;;;8.50;;
11334;SDS011;5722;42.620;23.374;2023-05-19T08:40:20;9.32;;;8.00;;
11334;SDS011;5722;42.620;23.374;2023-05-19T08:42:59;10.50;;;7.95;;
11334;SDS011;5722;42.620;23.374;2023-05-19T08:45:47;17.15;;;10.05;;
11334;SDS011;5722;42.620;23.374;2023-05-19T08:48:21;11.35;;;9.07;;
11334;SDS011;5722;42.620;23.374;2023-05-19T08:50:54;11.30;;;8.70;;
11334;SDS011;5722;42.620;23.374;2023-05-19T08:53:32;12.63;;;9.48;;
11334;SDS011;5722;42.620;23.374;2023-05-19T08:56:07;10.88;;;9.18;;
11334;SDS011;5722;42.620;23.374;2023-05-19T08:58:39;12.52;;;9.20;;
11334;SDS011;5722;42.620;23.374;2023-05-19T09:01:08;12.43;;;9.48;;
11334;SDS011;5722;42.620;23.374;2023-05-19T09:03:43;12.38;;;9.55;;
11334;SDS011;5722;42.620;23.374;2023-05-19T09:06:20;11.73;;;9.98;;
11334;SDS011;5722;42.620;23.374;2023-05-19T09:08:57;12.10;;;9.82;;
11334;SDS011;5722;42.620;23.374;2023-05-19T09:11:24;18.85;;;9.48;;
11334;SDS011;5722;42.620;23.374;2023-05-19T09:13:53;13.40;;;9.93;;
11334;SDS011;5722;42.620;23.374;2023-05-19T09:16:20;14.27;;;9.80;;
11334;SDS011;5722;42.620;23.374;2023-05-19T09:18:54;13.05;;;9.73;;
11334;SDS011;5722;42.620;23.374;2023-05-19T09:21:27;12.18;;;9.52;;
11334;SDS011;5722;42.620;23.374;2023-05-19T09:24:06;16.42;;;9.60;;
11334;SDS011;5722;42.620;23.374;2023-05-19T09:26:36;14.10;;;9.55;;
11334;SDS011;5722;42.620;23.374;2023-05-19T09:29:14;13.35;;;9.75;;
11334;SDS011;5722;42.620;23.374;2023-05-19T09:31:49;13.32;;;9.02;;
11334;SDS011;5722;42.620;23.374;2023-05-19T09:34:18;11.02;;;9.77;;
11334;SDS011;5722;42.620;23.374;2023-05-19T09:36:49;16.52;;;9.45;;
11334;SDS011;5722;42.620;23.374;2023-05-19T09:42:08;14.48;;;9.38;;
11334;SDS011;5722;42.620;23.374;2023-05-19T09:44:35;10.48;;;8.85;;
11334;SDS011;5722;42.620;23.374;2023-05-19T09:47:05;13.18;;;9.73;;
11334;SDS011;5722;42.620;23.374;2023-05-19T09:49:35;11.73;;;8.70;;
11334;SDS011;5722;42.620;23.374;2023-05-19T09:52:16;16.42;;;9.77;;
11334;SDS011;5722;42.620;23.374;2023-05-19T09:54:45;13.20;;;9.07;;
11334;SDS011;5722;42.620;23.374;2023-05-19T09:57:17;16.58;;;9.15;;
11334;SDS011;5722;42.620;23.374;2023-05-19T09:59:51;13.60;;;9.23;;
11334;SDS011;5722;42.620;23.374;2023-05-19T10:02:19;13.23;;;9.52;;
11334;SDS011;5722;42.620;23.374;2023-05-19T10:04:48;10.13;;;9.00;;
11334;SDS011;5722;42.620;23.374;2023-05-19T10:07:22;13.07;;;9.50;;
11334;SDS011;5722;42.620;23.374;2023-05-19T10:09:57;13.20;;;10.10;;
11334;SDS011;5722;42.620;23.374;2023-05-19T10:12:27;15.25;;;9.52;;
11334;SDS011;5722;42.620;23.374;2023-05-19T10:14:56;14.20;;;9.27;;
11334;SDS011;5722;42.620;23.374;2023-05-19T10:17:24;11.63;;;9.77;;
11334;SDS011;5722;42.620;23.374;2023-05-19T10:19:54;10.20;;;9.02;;
11334;SDS011;5722;42.620;23.374;2023-05-19T10:22:25;12.27;;;8.93;;
11334;SDS011;5722;42.620;23.374;2023-05-19T10:24:54;9.05;;;8.07;;
11334;SDS011;5722;42.620;23.374;2023-05-19T10:27:25;9.88;;;8.88;;
11334;SDS011;5722;42.620;23.374;2023-05-19T10:30:12;11.30;;;9.35;;
11334;SDS011;5722;42.620;23.374;2023-05-19T10:32:42;14.80;;;9.80;;
11334;SDS011;5722;42.620;23.374;2023-05-19T10:35:15;15.32;;;8.68;;
11334;SDS011;5722;42.620;23.374;2023-05-19T10:37:52;12.98;;;8.57;;
11334;SDS011;5722;42.620;23.374;2023-05-19T10:40:25;12.00;;;8.90;;
11334;SDS011;5722;42.620;23.374;2023-05-19T10:43:00;10.98;;;9.00;;
11334;SDS011;5722;42.620;23.374;2023-05-19T10:45:31;11.77;;;8.50;;
11334;SDS011;5722;42.620;23.374;2023-05-19T10:48:00;11.63;;;8.15;;
11334;SDS011;5722;42.620;23.374;2023-05-19T10:50:34;10.48;;;7.93;;
11334;SDS011;5722;42.620;23.374;2023-05-19T10:53:01;11.13;;;9.15;;
11334;SDS011;5722;42.620;23.374;2023-05-19T11:01:05;14.07;;;8.73;;
11334;SDS011;5722;42.620;23.374;2023-05-19T11:03:45;13.10;;;8.30;;
11334;SDS011;5722;42.620;23.374;2023-05-19T11:06:16;9.50;;;8.48;;
11334;SDS011;5722;42.620;23.374;2023-05-19T11:08:43;8.73;;;7.82;;
11334;SDS011;5722;42.620;23.374;2023-05-19T11:11:21;12.10;;;8.32;;
11334;SDS011;5722;42.620;23.374;2023-05-19T11:13:49;12.50;;;7.88;;
11334;SDS011;5722;42.620;23.374;2023-05-19T11:16:20;9.95;;;8.05;;
11334;SDS011;5722;42.620;23.374;2023-05-19T11:19:15;8.80;;;8.00;;
11334;SDS011;5722;42.620;23.374;2023-05-19T11:21:48;9.50;;;8.13;;
11334;SDS011;5722;42.620;23.374;2023-05-19T11:24:32;8.63;;;7.53;;
11334;SDS011;5722;42.620;23.374;2023-05-19T11:27:01;10.63;;;7.93;;
11334;SDS011;5722;42.620;23.374;2023-05-19T11:29:52;11.85;;;7.85;;
11334;SDS011;5722;42.620;23.374;2023-05-19T11:32:21;13.15;;;8.15;;
11334;SDS011;5722;42.620;23.374;2023-05-19T11:34:48;11.18;;;7.70;;
11334;SDS011;5722;42.620;23.374;2023-05-19T11:37:19;8.05;;;7.25;;
11334;SDS011;5722;42.620;23.374;2023-05-19T11:39:46;13.85;;;8.45;;
11334;SDS011;5722;42.620;23.374;2023-05-19T11:42:17;10.10;;;7.72;;
11334;SDS011;5722;42.620;23.374;2023-05-19T11:44:47;9.73;;;7.55;;
11334;SDS011;5722;42.620;23.374;2023-05-19T11:47:25;9.75;;;7.82;;
11334;SDS011;5722;42.620;23.374;2023-05-19T11:49:53;12.98;;;8.05;;
11334;SDS011;5722;42.620;23.374;2023-05-19T11:52:32;14.85;;;8.30;;
11334;SDS011;5722;42.620;23.374;2023-05-19T11:55:03;11.02;;;8.95;;
11334;SDS011;5722;42.620;23.374;2023-05-19T11:57:40;13.88;;;9.23;;
11334;SDS011;5722;42.620;23.374;2023-05-19T12:00:13;17.77;;;10.60;;
11334;SDS011;5722;42.620;23.374;2023-05-19T12:02:42;16.48;;;11.00;;
11334;SDS011;5722;42.620;23.374;2023-05-19T12:05:17;14.60;;;10.50;;
11334;SDS011;5722;42.620;23.374;2023-05-19T12:07:46;13.60;;;10.15;;
11334;SDS011;5722;42.620;23.374;2023-05-19T12:10:20;12.82;;;10.23;;
11334;SDS011;5722;42.620;23.374;2023-05-19T12:12:49;17.17;;;8.75;;
11334;SDS011;5722;42.620;23.374;2023-05-19T12:15:17;8.68;;;7.07;;
11334;SDS011;5722;42.620;23.374;2023-05-19T12:17:49;7.82;;;6.47;;
11334;SDS011;5722;42.620;23.374;2023-05-19T12:20:16;10.85;;;6.43;;
11334;SDS011;5722;42.620;23.374;2023-05-19T12:22:47;7.28;;;6.05;;
11334;SDS011;5722;42.620;23.374;2023-05-19T12:25:24;8.13;;;6.65;;
11334;SDS011;5722;42.620;23.374;2023-05-19T12:27:58;7.45;;;6.20;;
11334;SDS011;5722;42.620;23.374;2023-05-19T12:30:25;9.80;;;6.38;;
11334;SDS011;5722;42.620;23.374;2023-05-19T12:33:02;12.18;;;6.38;;
11334;SDS011;5722;42.620;23.374;2023-05-19T12:35:29;8.25;;;6.90;;
11334;SDS011;5722;42.620;23.374;2023-05-19T12:38:01;8.25;;;6.63;;
11334;SDS011;5722;42.620;23.374;2023-05-19T12:40:29;8.25;;;7.35;;
11334;SDS011;5722;42.620;23.374;2023-05-19T12:42:58;9.32;;;7.55;;
11334;SDS011;5722;42.620;23.374;2023-05-19T12:45:26;8.32;;;7.53;;
11334;SDS011;5722;42.620;23.374;2023-05-19T12:47:57;8.90;;;7.65;;
11334;SDS011;5722;42.620;23.374;2023-05-19T12:50:30;8.30;;;7.13;;
11334;SDS011;5722;42.620;23.374;2023-05-19T12:52:59;7.95;;;7.15;;
11334;SDS011;5722;42.620;23.374;2023-05-19T12:55:35;8.02;;;7.05;;
11334;SDS011;5722;42.620;23.374;2023-05-19T12:58:04;6.55;;;5.70;;
11334;SDS011;5722;42.620;23.374;2023-05-19T13:00:43;9.98;;;5.28;;
11334;SDS011;5722;42.620;23.374;2023-05-19T13:03:13;5.85;;;5.25;;
11334;SDS011;5722;42.620;23.374;2023-05-19T13:05:46;6.07;;;5.15;;
11334;SDS011;5722;42.620;23.374;2023-05-19T13:08:14;10.30;;;5.57;;
11334;SDS011;5722;42.620;23.374;2023-05-19T13:10:45;6.25;;;5.07;;
11334;SDS011;5722;42.620;23.374;2023-05-19T13:13:15;5.28;;;4.78;;
11334;SDS011;5722;42.620;23.374;2023-05-19T13:15:47;5.35;;;4.85;;
11334;SDS011;5722;42.620;23.374;2023-05-19T13:18:19;5.35;;;4.85;;
11334;SDS011;5722;42.620;23.374;2023-05-19T13:20:55;5.88;;;5.38;;
11334;SDS011;5722;42.620;23.374;2023-05-19T13:23:25;7.28;;;5.78;;
11334;SDS011;5722;42.620;23.374;2023-05-19T13:25:59;8.93;;;6.13;;
11334;SDS011;5722;42.620;23.374;2023-05-19T13:28:29;8.10;;;6.22;;
11334;SDS011;5722;42.620;23.374;2023-05-19T13:30:58;9.18;;;5.93;;
11334;SDS011;5722;42.620;23.374;2023-05-19T13:33:34;6.22;;;5.47;;
11334;SDS011;5722;42.620;23.374;2023-05-19T13:36:14;7.78;;;6.03;;
11334;SDS011;5722;42.620;23.374;2023-05-19T13:38:46;6.32;;;5.65;;
11334;SDS011;5722;42.620;23.374;2023-05-19T13:43:57;8.02;;;6.30;;
11334;SDS011;5722;42.620;23.374;2023-05-19T13:46:30;10.73;;;6.03;;
11334;SDS011;5722;42.620;23.374;2023-05-19T13:49:07;7.30;;;6.32;;
11334;SDS011;5722;42.620;23.374;2023-05-19T13:51:45;6.50;;;5.90;;
11334;SDS011;5722;42.620;23.374;2023-05-19T13:54:16;8.77;;;5.93;;
11334;SDS011;5722;42.620;23.374;2023-05-19T13:56:47;7.38;;;6.05;;
11334;SDS011;5722;42.620;23.374;2023-05-19T13:59:20;6.85;;;6.15;;
11334;SDS011;5722;42.620;23.374;2023-05-19T14:01:49;8.25;;;5.85;;
11334;SDS011;5722;42.620;23.374;2023-05-19T14:04:17;7.38;;;6.05;;
11334;SDS011;5722;42.620;23.374;2023-05-19T14:06:50;8.50;;;6.05;;
11334;SDS011;5722;42.620;23.374;2023-05-19T14:09:21;23.98;;;6.22;;
11334;SDS011;5722;42.620;23.374;2023-05-19T14:11:52;11.50;;;6.22;;
11334;SDS011;5722;42.620;23.374;2023-05-19T14:14:27;9.57;;;6.40;;
11334;SDS011;5722;42.620;23.374;2023-05-19T14:16:55;11.65;;;5.70;;
11334;SDS011;5722;42.620;23.374;2023-05-19T14:19:32;7.53;;;5.60;;
11334;SDS011;5722;42.620;23.374;2023-05-19T14:22:10;24.80;;;6.70;;
11334;SDS011;5722;42.620;23.374;2023-05-19T14:24:44;6.28;;;5.68;;
11334;SDS011;5722;42.620;23.374;2023-05-19T14:27:12;7.85;;;5.78;;
11334;SDS011;5722;42.620;23.374;2023-05-19T14:29:42;6.97;;;6.00;;
11334;SDS011;5722;42.620;23.374;2023-05-19T14:32:14;9.50;;;6.10;;
11334;SDS011;5722;42.620;23.374;2023-05-19T14:34:43;8.57;;;5.82;;
11334;SDS011;5722;42.620;23.374;2023-05-19T14:40:12;7.43;;;5.90;;
11334;SDS011;5722;42.620;23.374;2023-05-19T14:42:40;9.23;;;6.05;;
11334;SDS011;5722;42.620;23.374;2023-05-19T14:45:08;6.90;;;6.20;;
11334;SDS011;5722;42.620;23.374;2023-05-19T14:47:37;6.40;;;5.80;;
11334;SDS011;5722;42.620;23.374;2023-05-19T14:50:09;6.32;;;5.70;;
11334;SDS011;5722;42.620;23.374;2023-05-19T14:52:38;6.40;;;5.43;;
11334;SDS011;5722;42.620;23.374;2023-05-19T14:55:08;6.03;;;5.32;;
11334;SDS011;5722;42.620;23.374;2023-05-19T14:57:41;9.98;;;5.88;;
11334;SDS011;5722;42.620;23.374;2023-05-19T15:00:11;6.57;;;5.53;;
11334;SDS011;5722;42.620;23.374;2023-05-19T15:02:38;8.70;;;5.60;;
11334;SDS011;5722;42.620;23.374;2023-05-19T15:05:08;7.75;;;5.80;;
11334;SDS011;5722;42.620;23.374;2023-05-19T15:07:38;5.78;;;5.20;;
11334;SDS011;5722;42.620;23.374;2023-05-19T15:10:09;7.13;;;5.93;;
11334;SDS011;5722;42.620;23.374;2023-05-19T15:12:36;8.95;;;5.40;;
11334;SDS011;5722;42.620;23.374;2023-05-19T15:15:10;10.02;;;5.57;;
11334;SDS011;5722;42.620;23.374;2023-05-19T15:17:41;6.05;;;5.45;;
11334;SDS011;5722;42.620;23.374;2023-05-19T15:20:12;6.03;;;5.43;;
11334;SDS011;5722;42.620;23.374;2023-05-19T15:22:44;7.38;;;5.40;;
11334;SDS011;5722;42.620;23.374;2023-05-19T15:25:28;6.90;;;5.50;;
11334;SDS011;5722;42.620;23.374;2023-05-19T15:27:56;9.00;;;6.03;;
11334;SDS011;5722;42.620;23.374;2023-05-19T15:30:35;7.95;;;5.70;;
11334;SDS011;5722;42.620;23.374;2023-05-19T15:33:05;10.35;;;5.60;;
11334;SDS011;5722;42.620;23.374;2023-05-19T15:35:32;7.80;;;5.47;;
11334;SDS011;5722;42.620;23.374;2023-05-19T15:38:09;10.73;;;5.60;;
11334;SDS011;5722;42.620;23.374;2023-05-19T15:40:37;6.80;;;5.68;;
11334;SDS011;5722;42.620;23.374;2023-05-19T15:43:06;10.55;;;5.65;;
11334;SDS011;5722;42.620;23.374;2023-05-19T15:45:34;6.63;;;5.93;;